Time;durP1;ratioP1;P1;durP2;ratioP2;P2;SDS_P1;SDS_P2;PMS_P1;PMS_P2;Temp;Humidity;BMP_temperature;BMP_pressure;BME280_temperature;BME280_humidity;BME280_pressure;Samples;Min_cycle;Max_cycle;Signal;HPM_P1;HPM_P2
2023/03/13 00:00:20;;;;;;;2.50;1.90;;;;;;;;;;5037878;28;20087;-38
2023/03/13 00:02:46;;;;;;;2.28;2.08;;;;;;;;;;5032723;28;20476;-39
2023/03/13 00:05:12;;;;;;;5.70;2.15;;;;;;;;;;5038940;28;20033;-39
2023/03/13 00:07:38;;;;;;;2.47;2.28;;;;;;;;;;5032049;28;20406;-39
2023/03/13 00:10:04;;;;;;;2.35;2.08;;;;;;;;;;5033870;28;20025;-39
2023/03/13 00:12:29;;;;;;;2.60;2.30;;;;;;;;;;5034663;28;20049;-39
2023/03/13 00:14:55;;;;;;;2.13;2.00;;;;;;;;;;5037508;28;20683;-39
2023/03/13 00:17:20;;;;;;;3.15;2.28;;;;;;;;;;5035199;28;20033;-39
2023/03/13 00:19:46;;;;;;;2.53;2.13;;;;;;;;;;5031613;28;20490;-39
2023/03/13 00:22:11;;;;;;;4.75;2.45;;;;;;;;;;5040947;28;20037;-38
2023/03/13 00:24:36;;;;;;;2.88;2.28;;;;;;;;;;5033581;28;20024;-39
2023/03/13 00:27:03;;;;;;;2.50;2.20;;;;;;;;;;5031419;28;20057;-39
2023/03/13 00:29:31;;;;;;;4.03;2.63;;;;;;;;;;5032861;28;20098;-39
2023/03/13 00:31:56;;;;;;;4.47;2.92;;;;;;;;;;5034551;28;21865;-39
2023/03/13 00:34:22;;;;;;;3.85;2.85;;;;;;;;;;5034709;28;20664;-39
2023/03/13 00:36:48;;;;;;;4.57;3.20;;;;;;;;;;5035202;28;20072;-39
2023/03/13 00:39:13;;;;;;;4.60;3.25;;;;;;;;;;5038569;28;20055;-39
2023/03/13 00:41:38;;;;;;;4.85;2.95;;;;;;;;;;5041071;28;20048;-39
2023/03/13 00:44:04;;;;;;;5.97;3.47;;;;;;;;;;5034492;28;20025;-39
2023/03/13 00:46:30;;;;;;;7.88;3.45;;;;;;;;;;5033563;28;20060;-39
2023/03/13 00:48:58;;;;;;;5.30;3.80;;;;;;;;;;5032349;28;20028;-39
2023/03/13 00:51:26;;;;;;;4.70;3.30;;;;;;;;;;5033193;28;20094;-39
2023/03/13 00:53:51;;;;;;;4.50;3.70;;;;;;;;;;5035283;28;20036;-41
2023/03/13 00:56:18;;;;;;;4.35;3.22;;;;;;;;;;5031663;28;20033;-39
2023/03/13 00:58:45;;;;;;;5.65;3.22;;;;;;;;;;5030043;28;20035;-39
2023/03/13 01:01:24;;;;;;;4.07;3.20;;;;;;;;;;5039280;28;20024;-39
2023/03/13 01:03:58;;;;;;;4.47;3.15;;;;;;;;;;5034929;28;20028;-39
2023/03/13 01:06:29;;;;;;;3.60;2.70;;;;;;;;;;5035918;28;20065;-39
2023/03/13 01:08:54;;;;;;;5.25;3.50;;;;;;;;;;5035035;28;20034;-39
2023/03/13 01:11:25;;;;;;;5.80;3.00;;;;;;;;;;5033898;28;20053;-39
2023/03/13 01:13:54;;;;;;;5.40;3.33;;;;;;;;;;5034776;28;20021;-38
2023/03/13 01:16:20;;;;;;;3.05;2.75;;;;;;;;;;5032570;28;20053;-39
2023/03/13 01:18:55;;;;;;;3.25;2.97;;;;;;;;;;5030270;28;20033;-38
2023/03/13 01:21:21;;;;;;;4.05;3.20;;;;;;;;;;5026418;28;20623;-39
2023/03/13 01:23:53;;;;;;;3.10;2.80;;;;;;;;;;5034721;28;20059;-39
2023/03/13 01:26:19;;;;;;;3.92;2.90;;;;;;;;;;5028297;28;20133;-39
2023/03/13 01:28:45;;;;;;;3.67;3.10;;;;;;;;;;5031381;28;20047;-39
2023/03/13 01:31:17;;;;;;;3.55;2.90;;;;;;;;;;5029790;28;20021;-40
2023/03/13 01:33:44;;;;;;;5.78;3.20;;;;;;;;;;5037476;28;20029;-38
2023/03/13 01:36:09;;;;;;;3.58;2.83;;;;;;;;;;5033755;28;20029;-39
2023/03/13 01:38:36;;;;;;;6.68;3.08;;;;;;;;;;5035734;28;20112;-38
2023/03/13 01:41:02;;;;;;;3.33;3.03;;;;;;;;;;5031987;28;20477;-38
2023/03/13 01:43:33;;;;;;;6.03;2.97;;;;;;;;;;5027551;28;20033;-39
2023/03/13 01:46:24;;;;;;;5.53;2.78;;;;;;;;;;5035019;28;20040;-39
2023/03/13 01:49:24;;;;;;;4.65;2.65;;;;;;;;;;5029092;28;20029;-39
2023/03/13 01:51:58;;;;;;;3.58;2.70;;;;;;;;;;4991173;28;20096;-39
2023/03/13 01:54:37;;;;;;;3.70;2.67;;;;;;;;;;4995179;28;20113;-39
2023/03/13 01:57:24;;;;;;;3.17;2.88;;;;;;;;;;4992105;28;20462;-40
2023/03/13 02:00:06;;;;;;;2.88;2.60;;;;;;;;;;4992950;28;20081;-38
2023/03/13 02:02:31;;;;;;;6.15;2.97;;;;;;;;;;4995993;28;20111;-39
2023/03/13 02:05:02;;;;;;;3.42;2.70;;;;;;;;;;4991398;28;20479;-39
2023/03/13 02:07:37;;;;;;;4.35;2.72;;;;;;;;;;4995867;28;20149;-39
2023/03/13 02:10:02;;;;;;;3.42;2.58;;;;;;;;;;4994003;28;20026;-38
2023/03/13 02:12:31;;;;;;;2.80;2.50;;;;;;;;;;4991888;28;20173;-38
2023/03/13 02:15:23;;;;;;;5.60;3.13;;;;;;;;;;4988173;28;20042;-39
2023/03/13 02:17:53;;;;;;;;;;;;;;;;;;4996330;28;20049;-38
2023/03/13 02:20:22;;;;;;;4.03;2.50;;;;;;;;;;4987153;28;19921;-38
2023/03/13 02:23:09;;;;;;;3.00;2.80;;;;;;;;;;4992642;28;20046;-39
2023/03/13 02:25:41;;;;;;;3.13;2.83;;;;;;;;;;5006954;28;20033;-39
2023/03/13 02:28:09;;;;;;;;;;;;;;;;;;5027439;28;20046;-38
2023/03/13 02:30:36;;;;;;;3.55;2.92;;;;;;;;;;5030479;28;19990;-39
2023/03/13 02:33:02;;;;;;;5.93;3.00;;;;;;;;;;5036788;28;21527;-39
2023/03/13 02:35:35;;;;;;;2.88;2.45;;;;;;;;;;5033226;28;20455;-39
2023/03/13 02:38:04;;;;;;;2.60;2.40;;;;;;;;;;5032120;28;20048;-38
2023/03/13 02:40:42;;;;;;;3.40;2.78;;;;;;;;;;5037291;28;20029;-38
2023/03/13 02:43:14;;;;;;;2.72;2.53;;;;;;;;;;5027916;28;20037;-39
2023/03/13 02:45:40;;;;;;;3.72;2.92;;;;;;;;;;5028747;28;20043;-38
2023/03/13 02:48:08;;;;;;;3.25;2.35;;;;;;;;;;5030749;28;20133;-39
2023/03/13 02:50:35;;;;;;;4.13;2.63;;;;;;;;;;5027017;28;20029;-39
2023/03/13 02:53:08;;;;;;;2.60;2.40;;;;;;;;;;5028962;28;20426;-39
2023/03/13 02:55:39;;;;;;;3.17;2.65;;;;;;;;;;5033112;28;20028;-38
2023/03/13 02:58:05;;;;;;;3.88;2.70;;;;;;;;;;5029121;28;20144;-39
2023/03/13 03:00:30;;;;;;;3.08;2.78;;;;;;;;;;5032029;28;20474;-39
2023/03/13 03:03:02;;;;;;;4.40;2.95;;;;;;;;;;5032056;28;20509;-39
2023/03/13 03:05:27;;;;;;;3.20;2.80;;;;;;;;;;5027476;28;20536;-39
2023/03/13 03:07:55;;;;;;;3.90;3.10;;;;;;;;;;5028691;28;20446;-38
2023/03/13 03:10:27;;;;;;;4.45;3.00;;;;;;;;;;5029622;28;20048;-38
2023/03/13 03:12:52;;;;;;;3.87;2.63;;;;;;;;;;5034817;28;20038;-38
2023/03/13 03:15:17;;;;;;;3.00;2.60;;;;;;;;;;5033026;28;20434;-38
2023/03/13 03:17:43;;;;;;;3.28;2.67;;;;;;;;;;5035393;28;20067;-38
2023/03/13 03:20:10;;;;;;;4.53;2.80;;;;;;;;;;5032263;28;20025;-38
2023/03/13 03:22:45;;;;;;;3.95;2.63;;;;;;;;;;5033437;28;20493;-39
2023/03/13 03:25:11;;;;;;;4.18;3.15;;;;;;;;;;5049623;28;20037;-38
2023/03/13 03:27:36;;;;;;;4.50;3.30;;;;;;;;;;5034363;28;20041;-38
2023/03/13 03:30:04;;;;;;;4.45;2.75;;;;;;;;;;5031911;28;20022;-39
2023/03/13 03:32:29;;;;;;;5.13;3.28;;;;;;;;;;5036986;28;20485;-38
2023/03/13 03:34:55;;;;;;;4.22;3.15;;;;;;;;;;5031916;28;20031;-38
2023/03/13 03:37:20;;;;;;;3.28;2.95;;;;;;;;;;5032764;28;20042;-39
2023/03/13 03:39:45;;;;;;;3.17;2.50;;;;;;;;;;5033845;28;20108;-39
2023/03/13 03:42:17;;;;;;;3.17;2.88;;;;;;;;;;5031584;28;20083;-39
2023/03/13 03:44:42;;;;;;;4.57;3.05;;;;;;;;;;5032328;28;20052;-38
2023/03/13 03:47:08;;;;;;;3.13;2.80;;;;;;;;;;5036229;28;20075;-38
2023/03/13 03:49:33;;;;;;;6.18;3.00;;;;;;;;;;5031951;28;20018;-39
2023/03/13 03:51:58;;;;;;;3.92;2.60;;;;;;;;;;5031950;28;20480;-39
2023/03/13 03:54:33;;;;;;;3.25;2.75;;;;;;;;;;5034263;28;20021;-39
2023/03/13 03:56:59;;;;;;;3.00;2.72;;;;;;;;;;5025078;28;20034;-39
2023/03/13 03:59:25;;;;;;;7.68;2.80;;;;;;;;;;5038519;28;20033;-39
2023/03/13 04:01:50;;;;;;;3.50;2.78;;;;;;;;;;5032095;28;20278;-37
2023/03/13 04:04:15;;;;;;;2.58;2.33;;;;;;;;;;5038678;28;20037;-38
2023/03/13 04:06:41;;;;;;;5.53;2.70;;;;;;;;;;5032859;28;20045;-38
2023/03/13 04:09:06;;;;;;;2.97;2.67;;;;;;;;;;5038583;28;20033;-38
2023/03/13 04:11:32;;;;;;;2.78;2.42;;;;;;;;;;5036607;28;20501;-38
2023/03/13 04:14:03;;;;;;;4.63;2.65;;;;;;;;;;5031440;28;20032;-38
2023/03/13 04:16:28;;;;;;;2.27;2.07;;;;;;;;;;5032454;28;20084;-38
2023/03/13 04:18:54;;;;;;;8.48;2.72;;;;;;;;;;5037031;28;20021;-38
2023/03/13 04:21:19;;;;;;;2.80;2.40;;;;;;;;;;5030262;28;20777;-37
2023/03/13 04:23:44;;;;;;;2.38;2.17;;;;;;;;;;5032593;28;20028;-38
2023/03/13 04:26:10;;;;;;;12.60;2.38;;;;;;;;;;5030449;28;20064;-38
2023/03/13 04:28:35;;;;;;;3.78;2.22;;;;;;;;;;5031073;28;20037;-39
2023/03/13 04:31:01;;;;;;;3.42;2.60;;;;;;;;;;5033735;28;20035;-38
2023/03/13 04:33:26;;;;;;;4.32;2.53;;;;;;;;;;5036573;28;20057;-38
2023/03/13 04:35:52;;;;;;;3.80;2.60;;;;;;;;;;5036793;28;20028;-38
2023/03/13 04:38:20;;;;;;;3.22;2.22;;;;;;;;;;5035716;28;20402;-39
2023/03/13 04:40:46;;;;;;;2.55;2.20;;;;;;;;;;5030767;28;20029;-39
2023/03/13 04:43:24;;;;;;;3.08;2.55;;;;;;;;;;5030328;28;20144;-39
2023/03/13 04:45:53;;;;;;;3.63;2.72;;;;;;;;;;5034135;28;20033;-39
2023/03/13 04:48:25;;;;;;;10.93;2.28;;;;;;;;;;5034269;28;20124;-39
2023/03/13 04:50:53;;;;;;;6.60;3.10;;;;;;;;;;5036049;28;20028;-38
2023/03/13 04:53:18;;;;;;;4.35;2.88;;;;;;;;;;5032652;28;20045;-39
2023/03/13 04:55:44;;;;;;;3.30;2.38;;;;;;;;;;5031359;28;20078;-38
2023/03/13 04:58:09;;;;;;;7.00;2.63;;;;;;;;;;5035043;28;20037;-39
2023/03/13 05:00:35;;;;;;;6.38;2.50;;;;;;;;;;5031194;28;20588;-39
2023/03/13 05:03:00;;;;;;;3.60;2.58;;;;;;;;;;5037777;28;20060;-39
2023/03/13 05:05:25;;;;;;;3.85;2.50;;;;;;;;;;5034957;28;20056;-38
2023/03/13 05:07:51;;;;;;;6.32;2.65;;;;;;;;;;5033074;28;20041;-39
2023/03/13 05:10:19;;;;;;;5.75;2.50;;;;;;;;;;5030876;28;20626;-39
2023/03/13 05:12:44;;;;;;;2.55;2.35;;;;;;;;;;5034255;28;20120;-38
2023/03/13 05:15:10;;;;;;;5.13;2.50;;;;;;;;;;5034485;28;20113;-39
2023/03/13 05:17:39;;;;;;;3.38;2.35;;;;;;;;;;5030937;28;20038;-38
2023/03/13 05:20:06;;;;;;;2.40;2.20;;;;;;;;;;5024534;28;20041;-39
2023/03/13 05:22:32;;;;;;;5.93;2.63;;;;;;;;;;5026020;28;20053;-39
2023/03/13 05:24:57;;;;;;;2.38;2.17;;;;;;;;;;5028480;28;20021;-38
2023/03/13 05:27:23;;;;;;;2.42;2.22;;;;;;;;;;5027989;28;20046;-38
2023/03/13 05:29:54;;;;;;;4.25;2.50;;;;;;;;;;5033547;28;20032;-38
2023/03/13 05:32:19;;;;;;;3.57;2.37;;;;;;;;;;5021128;28;20515;-39
2023/03/13 05:34:45;;;;;;;2.72;2.25;;;;;;;;;;5029109;28;20025;-39
2023/03/13 05:37:10;;;;;;;3.08;2.00;;;;;;;;;;5034077;28;20037;-39
2023/03/13 05:39:36;;;;;;;3.08;2.13;;;;;;;;;;5030736;28;20036;-38
2023/03/13 05:42:10;;;;;;;2.28;2.00;;;;;;;;;;5028129;28;20034;-38
2023/03/13 05:44:36;;;;;;;2.03;1.90;;;;;;;;;;5033322;28;20030;-39
2023/03/13 05:47:01;;;;;;;2.92;2.10;;;;;;;;;;5028055;28;20543;-39
2023/03/13 05:49:26;;;;;;;4.32;2.40;;;;;;;;;;5024551;28;20061;-38
2023/03/13 05:51:52;;;;;;;3.17;2.25;;;;;;;;;;5034688;28;20042;-38
2023/03/13 05:54:17;;;;;;;4.90;2.42;;;;;;;;;;5029672;28;20080;-38
2023/03/13 05:56:43;;;;;;;2.33;2.13;;;;;;;;;;5035356;28;20091;-38
2023/03/13 05:59:09;;;;;;;2.33;2.13;;;;;;;;;;5030869;28;20034;-38
2023/03/13 06:01:43;;;;;;;5.90;2.15;;;;;;;;;;5030692;28;20041;-38
2023/03/13 06:04:09;;;;;;;3.58;1.92;;;;;;;;;;5032251;28;20025;-38
2023/03/13 06:06:34;;;;;;;10.13;8.98;;;;;;;;;;5033920;28;20584;-38
2023/03/13 06:08:59;;;;;;;3.97;2.03;;;;;;;;;;5034970;28;20032;-38
2023/03/13 06:11:25;;;;;;;2.40;1.92;;;;;;;;;;5018817;28;20037;-39
2023/03/13 06:13:51;;;;;;;2.47;1.65;;;;;;;;;;5030541;28;20028;-39
2023/03/13 06:16:17;;;;;;;2.45;2.15;;;;;;;;;;5035444;28;20037;-39
2023/03/13 06:18:42;;;;;;;2.33;2.10;;;;;;;;;;5025221;28;20071;-40
2023/03/13 06:21:07;;;;;;;3.40;1.95;;;;;;;;;;5027260;28;20035;-39
2023/03/13 06:23:34;;;;;;;2.08;1.88;;;;;;;;;;5028647;28;20025;-38
2023/03/13 06:26:00;;;;;;;2.35;1.55;;;;;;;;;;5033550;28;20029;-38
2023/03/13 06:28:25;;;;;;;3.63;1.60;;;;;;;;;;5031369;28;20014;-39
2023/03/13 06:30:51;;;;;;;2.00;1.80;;;;;;;;;;5030019;28;20102;-39
2023/03/13 06:33:25;;;;;;;9.02;1.70;;;;;;;;;;5025171;28;20050;-38
2023/03/13 06:35:50;;;;;;;4.13;1.60;;;;;;;;;;5022603;28;20053;-39
2023/03/13 06:38:16;;;;;;;2.33;1.88;;;;;;;;;;5033328;28;20076;-38
2023/03/13 06:40:41;;;;;;;3.50;2.15;;;;;;;;;;5018473;28;20025;-38
2023/03/13 06:43:06;;;;;;;2.85;2.55;;;;;;;;;;5016831;28;20038;-38
2023/03/13 06:45:34;;;;;;;4.25;2.60;;;;;;;;;;5031987;28;20405;-39
2023/03/13 06:48:00;;;;;;;1.98;1.73;;;;;;;;;;5038618;28;20073;-40
2023/03/13 06:50:25;;;;;;;3.45;2.22;;;;;;;;;;5038712;28;20026;-38
2023/03/13 06:52:57;;;;;;;3.13;2.10;;;;;;;;;;5036947;28;20106;-38
2023/03/13 06:55:23;;;;;;;3.28;1.90;;;;;;;;;;5039409;28;20036;-40
2023/03/13 06:57:50;;;;;;;2.80;1.80;;;;;;;;;;5034168;28;20045;-39
2023/03/13 07:00:16;;;;;;;7.10;1.95;;;;;;;;;;5028755;28;20025;-39
2023/03/13 07:02:41;;;;;;;3.67;1.90;;;;;;;;;;5019350;28;20044;-40
2023/03/13 07:05:13;;;;;;;3.45;2.47;;;;;;;;;;5024103;28;20017;-39
2023/03/13 07:07:40;;;;;;;3.70;1.80;;;;;;;;;;5029410;28;20516;-39
2023/03/13 07:10:06;;;;;;;4.80;1.88;;;;;;;;;;5032670;28;20033;-38
2023/03/13 07:12:33;;;;;;;2.17;1.95;;;;;;;;;;5025847;28;20033;-39
2023/03/13 07:14:59;;;;;;;3.00;1.70;;;;;;;;;;5026498;28;20112;-38
2023/03/13 07:17:30;;;;;;;2.20;1.80;;;;;;;;;;5030806;28;20139;-39
2023/03/13 07:19:55;;;;;;;4.50;1.80;;;;;;;;;;5029113;28;20028;-38
2023/03/13 07:22:21;;;;;;;2.08;1.75;;;;;;;;;;5039963;28;20076;-39
2023/03/13 07:24:48;;;;;;;2.58;1.70;;;;;;;;;;5031878;28;20050;-39
2023/03/13 07:27:13;;;;;;;2.47;2.10;;;;;;;;;;5025880;28;20096;-38
2023/03/13 07:29:39;;;;;;;4.88;1.80;;;;;;;;;;5032823;28;20036;-38
2023/03/13 07:32:04;;;;;;;8.43;1.90;;;;;;;;;;5036112;28;20041;-39
2023/03/13 07:34:30;;;;;;;2.25;1.70;;;;;;;;;;5033487;28;20055;-39
2023/03/13 07:37:04;;;;;;;2.78;1.67;;;;;;;;;;5038458;28;20493;-39
2023/03/13 07:39:30;;;;;;;4.38;1.95;;;;;;;;;;5038087;28;20240;-39
2023/03/13 07:41:55;;;;;;;3.08;1.60;;;;;;;;;;5041571;28;20490;-39
2023/03/13 07:44:20;;;;;;;2.15;1.90;;;;;;;;;;5037912;28;20375;-39
2023/03/13 07:46:47;;;;;;;3.22;1.77;;;;;;;;;;5032119;28;20042;-39
2023/03/13 07:49:15;;;;;;;6.13;1.60;;;;;;;;;;5035032;28;20033;-39
2023/03/13 07:51:41;;;;;;;2.28;1.60;;;;;;;;;;5030167;28;20040;-42
2023/03/13 07:54:06;;;;;;;5.35;2.15;;;;;;;;;;5037329;28;20044;-39
2023/03/13 07:56:32;;;;;;;9.00;3.88;;;;;;;;;;5035767;28;20132;-39
2023/03/13 07:58:57;;;;;;;2.20;1.40;;;;;;;;;;5037323;28;20131;-39
2023/03/13 08:01:25;;;;;;;4.93;3.13;;;;;;;;;;5032838;28;20044;-39
2023/03/13 08:03:53;;;;;;;7.20;2.92;;;;;;;;;;5017260;28;20520;-39
2023/03/13 08:06:22;;;;;;;4.15;2.47;;;;;;;;;;5033402;28;20045;-39
2023/03/13 08:08:56;;;;;;;2.15;1.75;;;;;;;;;;5034680;28;20028;-39
2023/03/13 08:11:24;;;;;;;3.38;1.60;;;;;;;;;;5033945;28;20136;-39
2023/03/13 08:13:50;;;;;;;2.72;1.50;;;;;;;;;;5038715;28;20031;-39
2023/03/13 08:16:21;;;;;;;2.90;1.48;;;;;;;;;;5036600;28;20053;-39
2023/03/13 08:18:49;;;;;;;4.70;1.43;;;;;;;;;;5029921;28;20561;-39
2023/03/13 08:21:17;;;;;;;3.00;1.63;;;;;;;;;;5031791;28;20033;-39
2023/03/13 08:23:43;;;;;;;2.97;1.70;;;;;;;;;;5036297;28;20025;-39
2023/03/13 08:26:20;;;;;;;5.22;1.75;;;;;;;;;;5033615;28;20142;-39
2023/03/13 08:28:47;;;;;;;2.92;1.88;;;;;;;;;;5028956;28;20044;-40
2023/03/13 08:31:25;;;;;;;3.83;1.58;;;;;;;;;;5036030;28;20047;-39
2023/03/13 08:33:51;;;;;;;4.82;2.40;;;;;;;;;;5036444;28;20106;-39
2023/03/13 08:36:23;;;;;;;8.13;2.63;;;;;;;;;;5032997;28;22527;-39
2023/03/13 08:38:50;;;;;;;14.05;1.92;;;;;;;;;;5037621;28;20061;-40
2023/03/13 08:41:22;;;;;;;4.43;2.22;;;;;;;;;;5033935;28;20045;-42
2023/03/13 08:43:47;;;;;;;5.07;1.45;;;;;;;;;;5032559;28;20474;-39
2023/03/13 08:46:14;;;;;;;3.13;2.20;;;;;;;;;;5039655;28;20033;-40
2023/03/13 08:48:40;;;;;;;6.03;2.20;;;;;;;;;;5034163;28;20060;-39
2023/03/13 08:51:08;;;;;;;6.35;1.85;;;;;;;;;;5028104;28;20028;-40
2023/03/13 08:53:35;;;;;;;5.43;2.67;;;;;;;;;;5031787;28;20546;-39
2023/03/13 08:56:12;;;;;;;4.78;2.22;;;;;;;;;;5034464;28;20065;-38
2023/03/13 08:58:38;;;;;;;6.35;1.77;;;;;;;;;;5032162;28;20164;-39
2023/03/13 09:01:13;;;;;;;3.70;1.50;;;;;;;;;;5034680;28;20064;-39
2023/03/13 09:03:40;;;;;;;4.82;2.13;;;;;;;;;;5034563;28;20037;-39
2023/03/13 09:06:06;;;;;;;7.45;1.65;;;;;;;;;;5031679;28;20080;-39
2023/03/13 09:08:32;;;;;;;3.60;1.90;;;;;;;;;;5030274;28;20018;-39
2023/03/13 09:11:03;;;;;;;8.15;2.67;;;;;;;;;;5032046;28;20029;-41
2023/03/13 09:13:35;;;;;;;5.90;1.83;;;;;;;;;;5040140;28;20044;-40
2023/03/13 09:16:06;;;;;;;7.68;1.90;;;;;;;;;;5032166;28;20037;-40
2023/03/13 09:18:38;;;;;;;7.70;1.73;;;;;;;;;;5030926;28;20029;-39
2023/03/13 09:21:10;;;;;;;4.88;1.73;;;;;;;;;;5030295;28;20115;-39
2023/03/13 09:23:46;;;;;;;3.90;1.35;;;;;;;;;;5037328;28;20568;-39
2023/03/13 09:26:12;;;;;;;3.22;1.27;;;;;;;;;;5025662;28;20034;-39
2023/03/13 09:28:38;;;;;;;3.55;1.00;;;;;;;;;;5036325;28;20040;-39
2023/03/13 09:31:11;;;;;;;4.05;1.35;;;;;;;;;;5034415;28;20403;-38
2023/03/13 09:33:37;;;;;;;2.90;1.30;;;;;;;;;;5030594;28;20040;-39
2023/03/13 09:36:03;;;;;;;4.85;1.35;;;;;;;;;;5033642;28;20535;-39
2023/03/13 09:38:29;;;;;;;3.20;1.20;;;;;;;;;;5033869;28;20041;-39
2023/03/13 09:40:59;;;;;;;7.22;1.52;;;;;;;;;;5037767;28;20037;-39
2023/03/13 09:43:41;;;;;;;8.35;1.40;;;;;;;;;;5030908;28;20037;-39
2023/03/13 09:46:29;;;;;;;2.13;1.38;;;;;;;;;;5037762;28;20145;-39
2023/03/13 09:49:07;;;;;;;2.42;1.02;;;;;;;;;;5035612;28;20021;-39
2023/03/13 09:51:42;;;;;;;5.13;1.50;;;;;;;;;;5032363;28;20052;-39
2023/03/13 09:54:26;;;;;;;6.75;1.55;;;;;;;;;;5033454;28;20112;-39
2023/03/13 09:57:02;;;;;;;6.72;1.48;;;;;;;;;;5031831;28;20110;-39
2023/03/13 09:59:45;;;;;;;3.78;1.50;;;;;;;;;;5028370;28;20026;-39
2023/03/13 10:02:29;;;;;;;5.38;1.38;;;;;;;;;;5030696;28;20047;-39
2023/03/13 10:05:02;;;;;;;4.43;1.48;;;;;;;;;;5036700;28;20031;-39
2023/03/13 10:07:28;;;;;;;2.85;1.15;;;;;;;;;;5036676;28;20398;-40
2023/03/13 10:09:53;;;;;;;2.28;1.40;;;;;;;;;;5034144;28;20048;-39
2023/03/13 10:12:26;;;;;;;7.53;1.38;;;;;;;;;;5037716;28;20037;-39
2023/03/13 10:15:18;;;;;;;6.05;1.10;;;;;;;;;;5033552;28;20048;-39
2023/03/13 10:17:44;;;;;;;2.80;1.15;;;;;;;;;;5033039;28;20041;-39
2023/03/13 10:20:17;;;;;;;4.05;1.50;;;;;;;;;;5035251;28;20044;-40
2023/03/13 10:22:47;;;;;;;2.05;1.35;;;;;;;;;;5035621;28;20318;-40
2023/03/13 10:25:37;;;;;;;14.93;2.00;;;;;;;;;;5031894;28;20037;-39
2023/03/13 10:28:03;;;;;;;3.63;1.50;;;;;;;;;;5033849;28;20041;-39
2023/03/13 10:30:34;;;;;;;5.32;1.63;;;;;;;;;;5035063;28;20044;-39
2023/03/13 10:33:05;;;;;;;3.05;1.70;;;;;;;;;;5036958;28;20053;-39
2023/03/13 10:35:37;;;;;;;4.85;1.25;;;;;;;;;;5033123;28;20154;-39
2023/03/13 10:38:11;;;;;;;5.25;1.77;;;;;;;;;;5030723;28;20056;-40
2023/03/13 10:40:42;;;;;;;1.52;1.40;;;;;;;;;;5032877;28;20045;-39
2023/03/13 10:43:19;;;;;;;7.47;1.90;;;;;;;;;;5035420;28;20038;-39
2023/03/13 10:45:47;;;;;;;4.28;1.77;;;;;;;;;;5030142;28;20018;-39
2023/03/13 10:48:21;;;;;;;3.55;1.60;;;;;;;;;;5035988;28;20033;-39
2023/03/13 10:50:56;;;;;;;3.78;1.27;;;;;;;;;;5036716;28;20511;-39
2023/03/13 10:53:32;;;;;;;2.90;1.27;;;;;;;;;;5034028;28;20088;-39
2023/03/13 10:56:07;;;;;;;5.88;1.23;;;;;;;;;;5027655;28;20491;-38
2023/03/13 10:58:39;;;;;;;8.45;1.50;;;;;;;;;;5034987;28;20024;-40
2023/03/13 11:01:23;;;;;;;3.47;1.30;;;;;;;;;;5036666;28;20025;-39
2023/03/13 11:03:50;;;;;;;12.75;1.55;;;;;;;;;;5036112;28;20548;-39
2023/03/13 11:06:33;;;;;;;7.07;1.30;;;;;;;;;;5032270;28;20073;-40
2023/03/13 11:09:18;;;;;;;2.53;1.35;;;;;;;;;;5031064;28;20049;-39
2023/03/13 11:11:53;;;;;;;2.05;1.48;;;;;;;;;;5036475;28;20040;-40
2023/03/13 11:14:33;;;;;;;5.55;1.50;;;;;;;;;;5030133;28;20029;-39
2023/03/13 11:17:22;;;;;;;5.90;1.13;;;;;;;;;;5028131;28;20048;-39
2023/03/13 11:20:00;;;;;;;5.97;1.15;;;;;;;;;;5035650;28;20106;-39
2023/03/13 11:23:00;;;;;;;3.53;1.42;;;;;;;;;;5031100;28;20076;-39
2023/03/13 11:25:50;;;;;;;11.13;1.25;;;;;;;;;;5031346;28;20070;-39
2023/03/13 11:28:15;;;;;;;4.25;1.83;;;;;;;;;;5033576;28;20079;-39
2023/03/13 11:30:56;;;;;;;6.97;1.35;;;;;;;;;;5035660;28;20048;-40
2023/03/13 11:33:39;;;;;;;1.67;1.27;;;;;;;;;;5035803;28;20045;-39
2023/03/13 11:36:27;;;;;;;5.88;1.70;;;;;;;;;;5034666;28;20024;-39
2023/03/13 11:38:59;;;;;;;6.75;1.48;;;;;;;;;;5038446;28;20482;-40
2023/03/13 11:41:46;;;;;;;2.72;1.30;;;;;;;;;;5038519;28;20401;-40
2023/03/13 11:44:29;;;;;;;3.00;1.52;;;;;;;;;;5035737;28;20032;-40
2023/03/13 11:47:37;;;;;;;5.15;1.20;;;;;;;;;;5034844;28;20080;-40
2023/03/13 11:50:05;;;;;;;11.93;1.70;;;;;;;;;;5034631;28;20060;-43
2023/03/13 11:52:45;;;;;;;7.47;1.58;;;;;;;;;;5040544;28;20044;-39
2023/03/13 11:55:39;;;;;;;4.15;1.77;;;;;;;;;;5036181;28;20040;-41
2023/03/13 11:58:04;;;;;;;8.98;1.73;;;;;;;;;;4975923;28;20042;-40
2023/03/13 12:00:46;;;;;;;4.03;1.40;;;;;;;;;;4973874;28;20472;-39
2023/03/13 12:03:19;;;;;;;2.13;1.23;;;;;;;;;;4977580;28;20034;-40
2023/03/13 12:05:55;;;;;;;8.65;1.90;;;;;;;;;;4980090;28;20042;-39
2023/03/13 12:08:41;;;;;;;2.58;1.40;;;;;;;;;;4974335;28;20139;-43
2023/03/13 12:11:24;;;;;;;4.45;1.40;;;;;;;;;;4972227;28;20087;-40
2023/03/13 12:14:08;;;;;;;6.60;1.25;;;;;;;;;;4978269;28;20085;-41
2023/03/13 12:16:47;;;;;;;1.75;1.35;;;;;;;;;;4974594;28;20539;-39
2023/03/13 12:20:00;;;;;;;4.15;1.50;;;;;;;;;;4975007;28;20066;-40
2023/03/13 12:22:32;;;;;;;8.32;1.40;;;;;;;;;;4917393;29;20070;-40
2023/03/13 12:25:28;;;;;;;2.78;1.40;;;;;;;;;;4913369;29;20814;-40
2023/03/13 12:28:28;;;;;;;2.05;1.40;;;;;;;;;;4918889;29;20048;-39
2023/03/13 12:30:57;;;;;;;5.68;2.00;;;;;;;;;;4921299;29;20039;-39
2023/03/13 12:33:34;;;;;;;3.05;1.77;;;;;;;;;;4919530;29;20103;-39
2023/03/13 12:36:25;;;;;;;8.57;2.47;;;;;;;;;;4980292;28;20046;-39
2023/03/13 12:39:08;;;;;;;4.97;2.30;;;;;;;;;;4990177;28;20104;-41
2023/03/13 12:42:20;;;;;;;6.72;2.30;;;;;;;;;;4994530;28;20112;-40
2023/03/13 12:44:56;;;;;;;7.53;1.92;;;;;;;;;;4938529;29;20031;-39
2023/03/13 12:47:31;;;;;;;2.03;1.33;;;;;;;;;;4932874;29;20777;-39
2023/03/13 12:50:20;;;;;;;6.10;1.48;;;;;;;;;;4934591;29;20416;-40
2023/03/13 12:53:10;;;;;;;4.60;1.73;;;;;;;;;;4937622;28;20044;-40
2023/03/13 12:55:51;;;;;;;2.80;1.92;;;;;;;;;;4940121;28;20039;-40
2023/03/13 12:58:40;;;;;;;12.60;2.20;;;;;;;;;;4953135;28;20050;-39
2023/03/13 13:01:10;;;;;;;3.95;2.10;;;;;;;;;;4953857;28;20035;-40
2023/03/13 13:03:51;;;;;;;2.90;1.98;;;;;;;;;;4955261;28;20123;-40
2023/03/13 13:06:50;;;;;;;4.82;2.03;;;;;;;;;;4955266;28;20097;-39
2023/03/13 13:09:35;;;;;;;9.25;2.67;;;;;;;;;;4954249;28;20463;-40
2023/03/13 13:12:19;;;;;;;31.08;3.65;;;;;;;;;;4955084;28;20125;-40
2023/03/13 13:14:47;;;;;;;11.40;2.00;;;;;;;;;;4969831;28;20049;-39
2023/03/13 13:17:15;;;;;;;5.45;2.00;;;;;;;;;;5031676;28;21430;-39
2023/03/13 13:19:49;;;;;;;4.55;1.70;;;;;;;;;;5033892;28;20497;-40
2023/03/13 13:22:35;;;;;;;13.82;2.22;;;;;;;;;;5030686;28;20048;-40
2023/03/13 13:25:09;;;;;;;3.83;1.83;;;;;;;;;;5026559;28;20029;-40
2023/03/13 13:27:35;;;;;;;5.00;2.17;;;;;;;;;;5033560;28;20448;-41
2023/03/13 13:30:18;;;;;;;4.20;2.13;;;;;;;;;;5032709;28;20033;-40
2023/03/13 13:32:46;;;;;;;3.75;1.67;;;;;;;;;;5034308;28;20130;-42
2023/03/13 13:35:17;;;;;;;5.55;1.88;;;;;;;;;;5028236;28;20032;-39
2023/03/13 13:37:43;;;;;;;5.38;2.35;;;;;;;;;;5034064;28;20102;-42
2023/03/13 13:40:56;;;;;;;3.63;2.28;;;;;;;;;;5035149;28;20107;-40
2023/03/13 13:43:40;;;;;;;12.32;2.40;;;;;;;;;;4992933;28;20049;-39
2023/03/13 13:46:28;;;;;;;8.50;2.38;;;;;;;;;;4994219;28;20141;-40
2023/03/13 13:49:06;;;;;;;6.95;2.10;;;;;;;;;;4992750;28;20030;-41
2023/03/13 13:51:56;;;;;;;5.15;2.13;;;;;;;;;;4990124;28;20119;-40
2023/03/13 13:54:46;;;;;;;3.42;1.80;;;;;;;;;;4991332;28;20529;-41
2023/03/13 13:57:17;;;;;;;6.28;2.58;;;;;;;;;;4991975;28;20137;-39
2023/03/13 13:59:59;;;;;;;4.97;1.65;;;;;;;;;;4994055;28;20038;-40
2023/03/13 14:02:35;;;;;;;3.42;2.33;;;;;;;;;;4989323;28;20067;-39
2023/03/13 14:05:15;;;;;;;6.95;2.20;;;;;;;;;;4997571;28;20037;-39
2023/03/13 14:07:40;;;;;;;10.50;2.40;;;;;;;;;;4993599;28;20041;-39
2023/03/13 14:10:24;;;;;;;8.80;2.28;;;;;;;;;;4995372;28;20520;-39
2023/03/13 14:12:54;;;;;;;2.50;1.80;;;;;;;;;;4995657;28;20076;-40
2023/03/13 14:15:30;;;;;;;7.07;2.53;;;;;;;;;;4991981;28;20026;-43
2023/03/13 14:17:59;;;;;;;3.50;1.83;;;;;;;;;;5003923;28;20118;-40
2023/03/13 14:20:39;;;;;;;5.45;2.10;;;;;;;;;;5034571;28;20068;-41
2023/03/13 14:23:09;;;;;;;3.10;1.98;;;;;;;;;;5025893;28;20033;-39
2023/03/13 14:25:46;;;;;;;7.90;2.30;;;;;;;;;;5036095;28;20064;-40
2023/03/13 14:28:21;;;;;;;6.22;1.98;;;;;;;;;;5035353;28;20067;-40
2023/03/13 14:30:48;;;;;;;5.03;2.05;;;;;;;;;;5032693;28;20372;-39
2023/03/13 14:33:14;;;;;;;7.28;2.08;;;;;;;;;;5036372;28;20033;-40
2023/03/13 14:35:41;;;;;;;4.28;1.77;;;;;;;;;;5033875;28;20040;-39
2023/03/13 14:38:06;;;;;;;3.60;1.73;;;;;;;;;;5036672;28;20041;-40
2023/03/13 14:40:38;;;;;;;4.45;2.08;;;;;;;;;;5031655;28;20060;-44
2023/03/13 14:43:37;;;;;;;14.00;2.60;;;;;;;;;;5032974;28;20127;-40
2023/03/13 14:46:20;;;;;;;3.53;2.15;;;;;;;;;;5032968;28;20017;-39
2023/03/13 14:48:45;;;;;;;7.72;2.15;;;;;;;;;;5032585;28;20653;-40
2023/03/13 14:51:24;;;;;;;10.43;2.25;;;;;;;;;;5035710;28;20025;-41
2023/03/13 14:53:56;;;;;;;8.80;2.10;;;;;;;;;;5037003;28;20029;-41
2023/03/13 14:56:36;;;;;;;6.25;1.75;;;;;;;;;;5033547;28;20590;-39
2023/03/13 14:59:16;;;;;;;6.60;2.17;;;;;;;;;;5034386;28;20104;-41
2023/03/13 15:01:45;;;;;;;2.53;1.63;;;;;;;;;;5036120;28;20065;-39
2023/03/13 15:04:11;;;;;;;2.42;1.85;;;;;;;;;;5039661;28;20060;-40
2023/03/13 15:06:42;;;;;;;7.32;1.63;;;;;;;;;;5032782;28;20065;-39
2023/03/13 15:09:17;;;;;;;4.50;1.83;;;;;;;;;;5034035;28;20133;-42